Time;durP1;ratioP1;P1;durP2;ratioP2;P2;SDS_P1;SDS_P2;PMS_P1;PMS_P2;Temp;Humidity;BMP_temperature;BMP_pressure;BME280_temperature;BME280_humidity;BME280_pressure;Samples;Min_cycle;Max_cycle;Signal;HPM_P1;HPM_P2
2022/12/09 00:00:01;;;;;;;0.50;0.50;;;;;;;8.52;100.00;99486.88;5132585;27;20205;-64
2022/12/09 00:02:29;;;;;;;2.83;2.30;;;;;;;8.48;100.00;99482.69;5133458;27;20242;-65
2022/12/09 00:04:55;;;;;;;0.60;0.60;;;;;;;8.54;100.00;99482.56;5153010;27;20618;-65
2022/12/09 00:07:24;;;;;;;0.60;0.60;;;;;;;8.55;100.00;99491.94;5138031;27;20229;-65
2022/12/09 00:09:50;;;;;;;0.70;0.70;;;;;;;8.54;100.00;99492.78;5145846;27;20203;-64
2022/12/09 00:12:17;;;;;;;0.90;0.90;;;;;;;8.50;100.00;99486.09;5152770;27;20185;-65
2022/12/09 00:14:44;;;;;;;0.50;0.50;;;;;;;8.55;100.00;99481.72;5138139;27;20241;-65
2022/12/09 00:17:11;;;;;;;0.50;0.50;;;;;;;8.54;100.00;99485.13;5151139;27;20197;-65
2022/12/09 00:19:37;;;;;;;0.40;0.40;;;;;;;8.54;100.00;99478.31;5139719;27;20193;-64
2022/12/09 00:22:04;;;;;;;0.60;0.60;;;;;;;8.52;100.00;99474.09;5149984;27;20581;-64
2022/12/09 00:24:33;;;;;;;1.10;1.10;;;;;;;8.57;100.00;99497.84;5147280;27;20717;-65
2022/12/09 00:26:59;;;;;;;0.40;0.40;;;;;;;8.53;100.00;99499.59;5137963;27;20201;-65
2022/12/09 00:29:26;;;;;;;0.50;0.50;;;;;;;8.54;100.00;99500.47;5144540;27;20189;-65
2022/12/09 00:31:53;;;;;;;0.70;0.70;;;;;;;8.57;100.00;99500.38;5143288;27;20258;-65
2022/12/09 00:34:20;;;;;;;0.50;0.50;;;;;;;8.57;100.00;99502.94;5133606;27;20254;-65
2022/12/09 00:36:46;;;;;;;1.20;1.20;;;;;;;8.56;100.00;99491.91;5130732;27;20247;-65
2022/12/09 00:39:13;;;;;;;0.40;0.40;;;;;;;8.56;100.00;99496.19;5132154;27;20262;-65
2022/12/09 00:41:41;;;;;;;0.70;0.70;;;;;;;8.54;100.00;99492.78;5149222;27;20205;-65
2022/12/09 00:44:09;;;;;;;0.40;0.40;;;;;;;8.46;100.00;99487.00;5144776;27;20193;-65
2022/12/09 00:46:36;;;;;;;0.50;0.50;;;;;;;8.44;100.00;99487.88;5142340;27;20626;-65
2022/12/09 00:49:04;;;;;;;0.50;0.50;;;;;;;8.37;100.00;99476.09;5131351;27;20196;-65
2022/12/09 00:51:31;;;;;;;0.60;0.60;;;;;;;8.36;100.00;99489.75;5135999;27;20198;-64
2022/12/09 00:53:57;;;;;;;0.50;0.50;;;;;;;8.40;100.00;99482.88;5137164;27;20198;-65
2022/12/09 00:56:27;;;;;;;0.47;0.47;;;;;;;8.39;100.00;99478.63;5139795;27;20193;-65
2022/12/09 00:58:55;;;;;;;0.70;0.70;;;;;;;8.36;100.00;99473.59;5141708;27;20293;-65
2022/12/09 01:01:22;;;;;;;0.60;0.60;;;;;;;8.35;100.00;99482.94;5136362;27;20209;-65
2022/12/09 01:03:49;;;;;;;0.50;0.50;;;;;;;8.37;100.00;99477.78;5133857;27;20198;-65
2022/12/09 01:06:18;;;;;;;0.60;0.60;;;;;;;8.36;100.00;99474.44;5138400;27;20228;-65
2022/12/09 01:08:45;;;;;;;0.50;0.50;;;;;;;8.37;100.00;99470.13;5131630;27;20198;-65
2022/12/09 01:11:15;;;;;;;0.50;0.50;;;;;;;8.28;100.00;99475.44;5131553;27;20202;-65
2022/12/09 01:13:42;;;;;;;0.60;0.60;;;;;;;8.36;100.00;99479.53;5138758;27;20254;-65
2022/12/09 01:16:16;;;;;;;0.90;0.90;;;;;;;8.37;100.00;99481.19;5133131;27;20585;-65
2022/12/09 01:18:42;;;;;;;0.60;0.60;;;;;;;8.31;100.00;99475.38;5146066;27;20251;-65
2022/12/09 01:21:09;;;;;;;0.50;0.50;;;;;;;8.40;100.00;99490.53;5134220;27;20213;-65
2022/12/09 01:23:36;;;;;;;0.40;0.40;;;;;;;8.44;100.00;99487.88;5139813;27;20194;-65
2022/12/09 01:26:04;;;;;;;0.60;0.60;;;;;;;8.44;100.00;99485.31;5139942;27;20202;-64
2022/12/09 01:28:31;;;;;;;0.70;0.70;;;;;;;8.43;100.00;99475.97;5144320;27;20198;-65
2022/12/09 01:31:05;;;;;;;0.40;0.40;;;;;;;8.44;100.00;99472.53;5140706;27;20669;-65
2022/12/09 01:33:33;;;;;;;0.43;0.43;;;;;;;8.46;100.00;99480.19;5130684;27;20285;-65
2022/12/09 01:35:59;;;;;;;0.40;0.40;;;;;;;8.46;100.00;99469.13;5139791;27;20194;-65
2022/12/09 01:38:26;;;;;;;0.60;0.60;;;;;;;8.42;100.00;99476.00;5137934;27;20198;-65
2022/12/09 01:40:53;;;;;;;0.47;0.47;;;;;;;8.40;100.00;99483.69;5131159;27;20190;-65
2022/12/09 01:43:20;;;;;;;0.50;0.50;;;;;;;8.29;100.00;99460.09;5149863;27;20724;-65
2022/12/09 01:45:48;;;;;;;0.70;0.70;;;;;;;8.47;100.00;99465.69;5134351;27;20217;-65
2022/12/09 01:48:16;;;;;;;0.40;0.40;;;;;;;8.48;100.00;99472.47;5137383;27;20197;-64
2022/12/09 01:50:49;;;;;;;0.57;0.57;;;;;;;8.49;100.00;99479.28;5151541;27;20198;-65
2022/12/09 01:53:20;;;;;;;0.50;0.50;;;;;;;8.45;100.00;99478.50;5136974;27;20255;-65
2022/12/09 01:55:47;;;;;;;0.57;0.57;;;;;;;8.39;100.00;99466.69;5131703;27;20575;-65
2022/12/09 01:58:16;;;;;;;0.47;0.47;;;;;;;8.49;100.00;99479.28;5134493;27;20572;-65
2022/12/09 02:00:44;;;;;;;0.50;0.50;;;;;;;8.43;100.00;99445.31;5141151;27;20202;-65
2022/12/09 02:03:11;;;;;;;0.93;0.93;;;;;;;8.53;100.00;99457.91;5131122;27;20190;-65
2022/12/09 02:05:39;;;;;;;0.50;0.50;;;;;;;8.58;100.00;99458.66;5133345;27;20232;-65
2022/12/09 02:08:11;;;;;;;0.50;0.50;;;;;;;8.58;100.00;99454.38;5127811;27;20554;-65
2022/12/09 02:10:48;;;;;;;0.50;0.50;;;;;;;8.62;100.00;99452.59;5133763;27;20205;-65
2022/12/09 02:13:25;;;;;;;0.60;0.60;;;;;;;8.55;100.00;99443.38;5134730;27;20194;-64
2022/12/09 02:15:54;;;;;;;0.63;0.63;;;;;;;8.60;100.00;99472.22;5148030;27;20541;-65
2022/12/09 02:18:26;;;;;;;0.60;0.60;;;;;;;8.63;100.00;99482.38;5150188;27;20243;-65
2022/12/09 02:20:58;;;;;;;0.40;0.40;;;;;;;8.58;100.00;99472.25;5140072;27;20221;-65
2022/12/09 02:23:31;;;;;;;0.60;0.60;;;;;;;8.61;100.00;99458.59;5145865;27;20657;-65
2022/12/09 02:26:09;;;;;;;0.80;0.80;;;;;;;8.59;100.00;99455.22;5142488;27;20224;-65
2022/12/09 02:29:13;;;;;;;0.60;0.60;;;;;;;8.62;100.00;99461.13;5146589;27;20190;-65
2022/12/09 02:31:58;;;;;;;0.50;0.50;;;;;;;8.68;100.00;99455.88;5131737;27;20569;-65
2022/12/09 02:34:30;;;;;;;0.50;0.50;;;;;;;8.66;100.00;99452.47;5144975;27;20285;-65
2022/12/09 02:37:06;;;;;;;0.60;0.60;;;;;;;8.74;100.00;99467.66;5153828;27;20197;-64
2022/12/09 02:39:38;;;;;;;0.60;0.60;;;;;;;8.78;100.00;99466.72;5140445;27;20204;-65
2022/12/09 02:42:08;;;;;;;0.60;0.60;;;;;;;8.77;100.00;99447.16;5142647;27;20233;-65
2022/12/09 02:44:37;;;;;;;0.50;0.50;;;;;;;8.77;100.00;99435.22;5149849;27;20201;-65
2022/12/09 02:47:08;;;;;;;0.40;0.40;;;;;;;8.90;100.00;99453.69;5142151;27;20631;-65
2022/12/09 02:49:38;;;;;;;0.60;0.60;;;;;;;8.93;100.00;99451.88;5145529;27;20226;-65
2022/12/09 02:52:06;;;;;;;0.57;0.57;;;;;;;8.86;100.00;99437.56;5141836;27;20650;-65
2022/12/09 02:54:36;;;;;;;0.50;0.50;;;;;;;8.98;100.00;99455.16;5135681;27;20670;-64
2022/12/09 02:57:14;;;;;;;0.90;0.90;;;;;;;8.99;100.00;99456.00;5139740;27;20206;-65
2022/12/09 02:59:42;;;;;;;0.60;0.60;;;;;;;9.01;100.00;99458.56;5146119;27;20659;-65
2022/12/09 03:02:18;;;;;;;0.53;0.53;;;;;;;9.02;100.00;99473.84;5147293;27;20266;-65
2022/12/09 03:04:52;;;;;;;0.43;0.43;;;;;;;9.05;100.00;99473.78;5145119;27;20193;-65
2022/12/09 03:07:25;;;;;;;0.50;0.50;;;;;;;8.92;100.00;99445.09;5144261;27;20217;-67
2022/12/09 03:10:03;;;;;;;0.40;0.40;;;;;;;9.09;100.00;99462.59;5143260;27;20204;-65
2022/12/09 03:12:33;;;;;;;0.50;0.50;;;;;;;9.06;100.00;99452.44;5137540;27;20216;-65
2022/12/09 03:15:04;;;;;;;0.50;0.50;;;;;;;9.06;100.00;99455.00;5135630;27;20197;-65
2022/12/09 03:17:33;;;;;;;0.60;0.60;;;;;;;9.05;100.00;99466.09;5138876;27;20255;-65
2022/12/09 03:20:06;;;;;;;0.60;0.60;;;;;;;9.09;100.00;99472.84;5143225;27;20264;-65
2022/12/09 03:22:35;;;;;;;0.60;0.60;;;;;;;9.10;100.00;99479.63;5149368;27;20221;-65
2022/12/09 03:25:08;;;;;;;0.50;0.50;;;;;;;9.11;100.00;99485.59;5136575;27;20262;-65
2022/12/09 03:27:39;;;;;;;0.60;0.60;;;;;;;9.00;100.00;99490.09;5149016;27;20198;-65
2022/12/09 03:30:09;;;;;;;1.27;1.27;;;;;;;9.06;100.00;99505.31;5150043;27;20573;-65
2022/12/09 03:32:38;;;;;;;0.50;0.50;;;;;;;9.05;100.00;99499.34;5149173;27;20733;-65
2022/12/09 03:35:11;;;;;;;0.50;0.50;;;;;;;9.09;100.00;99506.06;5147978;27;20194;-65
2022/12/09 03:37:40;;;;;;;0.50;0.50;;;;;;;9.08;100.00;99501.81;5147917;27;20242;-65
2022/12/09 03:40:12;;;;;;;0.80;0.80;;;;;;;9.10;100.00;99492.44;5132867;27;20198;-64
2022/12/09 03:42:46;;;;;;;0.60;0.60;;;;;;;9.06;100.00;99490.81;5133887;27;20241;-65
2022/12/09 03:45:16;;;;;;;0.60;0.60;;;;;;;9.03;100.00;99484.91;5145138;27;20217;-64
2022/12/09 03:47:43;;;;;;;1.13;1.13;;;;;;;9.01;100.00;99486.69;5141609;27;20194;-65
2022/12/09 03:50:12;;;;;;;0.50;0.50;;;;;;;9.02;100.00;99496.00;5134994;27;20198;-65
2022/12/09 03:52:45;;;;;;;0.50;0.50;;;;;;;9.01;100.00;99495.19;5138874;27;20549;-64
2022/12/09 03:55:19;;;;;;;0.40;0.40;;;;;;;9.02;100.00;99486.63;5142247;27;20197;-65
2022/12/09 03:57:50;;;;;;;0.50;0.50;;;;;;;9.02;100.00;99489.19;5145435;27;20224;-64
2022/12/09 04:00:18;;;;;;;0.53;0.53;;;;;;;9.02;100.00;99486.63;5137653;27;20713;-64
2022/12/09 04:02:44;;;;;;;0.60;0.60;;;;;;;9.02;100.00;99481.50;5135363;27;20216;-64
2022/12/09 04:05:13;;;;;;;0.50;0.50;;;;;;;9.01;100.00;99479.84;5150354;27;20258;-65
2022/12/09 04:07:40;;;;;;;0.40;0.40;;;;;;;9.05;100.00;99478.88;5131281;27;20198;-65
2022/12/09 04:10:08;;;;;;;0.53;0.53;;;;;;;9.07;100.00;99479.72;5147211;27;20207;-65
2022/12/09 04:12:35;;;;;;;0.70;0.70;;;;;;;9.08;100.00;99486.47;5152965;27;20193;-65
2022/12/09 04:15:02;;;;;;;0.60;0.60;;;;;;;9.12;100.00;99483.00;5133874;27;20206;-65
2022/12/09 04:17:28;;;;;;;0.57;0.57;;;;;;;9.09;100.00;99477.94;5141386;27;20202;-65
2022/12/09 04:19:55;;;;;;;0.70;0.70;;;;;;;9.07;100.00;99474.59;5134810;27;20217;-64
2022/12/09 04:22:23;;;;;;;0.63;0.63;;;;;;;9.03;100.00;99472.13;5140824;27;20214;-65
2022/12/09 04:24:50;;;;;;;1.53;1.43;;;;;;;9.09;100.00;99477.94;5141917;27;20197;-65
2022/12/09 04:27:17;;;;;;;2.03;1.93;;;;;;;9.11;100.00;99470.25;5152694;27;20660;-65
2022/12/09 04:29:45;;;;;;;4.53;4.33;;;;;;;9.13;100.00;99474.44;5140835;27;20246;-65
2022/12/09 04:32:12;;;;;;;1.30;1.30;;;;;;;9.12;100.00;99477.88;5139623;27;20288;-65
2022/12/09 04:34:39;;;;;;;1.30;1.30;;;;;;;9.12;100.00;99475.31;5136985;27;20550;-65
2022/12/09 04:37:05;;;;;;;0.60;0.60;;;;;;;9.13;100.00;99474.44;5131492;27;20203;-65
2022/12/09 04:39:34;;;;;;;0.80;0.80;;;;;;;9.14;100.00;99473.59;5131525;27;20657;-66
2022/12/09 04:42:00;;;;;;;0.60;0.60;;;;;;;9.10;100.00;99464.28;5132669;27;20218;-66
2022/12/09 04:44:27;;;;;;;0.43;0.43;;;;;;;9.14;100.00;99470.19;5138935;27;20200;-65
2022/12/09 04:46:54;;;;;;;0.70;0.70;;;;;;;9.10;100.00;99459.19;5132871;27;20206;-65
2022/12/09 04:49:21;;;;;;;0.50;0.50;;;;;;;9.17;100.00;99470.09;5150008;27;20226;-65
2022/12/09 04:51:48;;;;;;;0.43;0.43;;;;;;;9.18;100.00;99472.63;5135516;27;20190;-65
2022/12/09 04:54:15;;;;;;;0.40;0.40;;;;;;;9.22;100.00;99479.34;5137429;27;20565;-65
2022/12/09 04:56:43;;;;;;;0.53;0.53;;;;;;;9.21;100.00;99482.78;5150262;27;20192;-65
2022/12/09 04:59:10;;;;;;;0.50;0.50;;;;;;;9.20;100.00;99481.13;5150674;27;20253;-65
2022/12/09 05:01:37;;;;;;;0.50;0.50;;;;;;;9.21;100.00;99482.78;5133350;27;20749;-66
2022/12/09 05:04:04;;;;;;;0.40;0.40;;;;;;;9.23;100.00;99487.88;5134049;27;20216;-66
2022/12/09 05:06:31;;;;;;;0.60;0.60;;;;;;;9.20;100.00;99491.34;5144683;27;20647;-65
2022/12/09 05:08:58;;;;;;;0.50;0.50;;;;;;;9.20;100.00;99487.94;5141044;27;20201;-65
2022/12/09 05:11:25;;;;;;;0.93;0.93;;;;;;;9.11;100.00;99478.75;5132957;27;20685;-65
2022/12/09 05:13:54;;;;;;;0.50;0.50;;;;;;;9.09;100.00;99475.38;5138789;27;20250;-65
2022/12/09 05:16:20;;;;;;;0.53;0.53;;;;;;;9.18;100.00;99492.22;5131417;27;20190;-65
2022/12/09 05:18:48;;;;;;;0.57;0.57;;;;;;;9.18;100.00;99502.47;5136434;27;20194;-65
2022/12/09 05:21:17;;;;;;;0.50;0.50;;;;;;;9.15;100.00;99495.69;5141008;27;20546;-65
2022/12/09 05:23:44;;;;;;;0.50;0.50;;;;;;;9.16;100.00;99497.41;5152342;27;20272;-65
2022/12/09 05:26:14;;;;;;;0.47;0.47;;;;;;;9.16;100.00;99496.53;5140803;27;20577;-65
2022/12/09 05:28:41;;;;;;;0.43;0.43;;;;;;;9.07;100.00;99482.25;5141112;27;20193;-65
2022/12/09 05:31:13;;;;;;;0.60;0.60;;;;;;;9.17;100.00;99490.56;5143520;27;20740;-65
2022/12/09 05:33:41;;;;;;;0.40;0.40;;;;;;;9.17;100.00;99481.19;5145470;27;20186;-65
2022/12/09 05:36:09;;;;;;;0.60;0.60;;;;;;;9.20;100.00;99485.38;5133465;27;20278;-65
2022/12/09 05:38:36;;;;;;;0.53;0.53;;;;;;;9.22;100.00;99484.47;5130133;27;20209;-65
2022/12/09 05:41:03;;;;;;;0.70;0.70;;;;;;;9.17;100.00;99491.41;5131466;27;20194;-65
2022/12/09 05:43:31;;;;;;;0.50;0.50;;;;;;;9.16;100.00;99489.72;5135574;27;20239;-65
2022/12/09 05:45:58;;;;;;;0.50;0.50;;;;;;;9.15;100.00;99492.31;5142968;27;20198;-65
2022/12/09 05:48:26;;;;;;;0.50;0.50;;;;;;;9.15;100.00;99493.16;5139942;27;20202;-65
2022/12/09 05:51:00;;;;;;;0.50;0.50;;;;;;;9.14;100.00;99486.38;5134973;27;20190;-65
2022/12/09 05:53:27;;;;;;;0.67;0.67;;;;;;;9.17;100.00;99501.66;5133836;27;20217;-65
2022/12/09 05:55:54;;;;;;;1.27;1.27;;;;;;;9.12;100.00;99497.50;5134033;27;20194;-65
2022/12/09 05:58:21;;;;;;;0.50;0.50;;;;;;;9.13;100.00;99500.03;5140021;27;20550;-65
2022/12/09 06:00:48;;;;;;;0.80;0.80;;;;;;;9.16;100.00;99510.19;5136437;27;20687;-65
2022/12/09 06:03:15;;;;;;;0.77;0.77;;;;;;;9.13;100.00;99502.59;5133472;27;20214;-65
2022/12/09 06:05:43;;;;;;;2.03;1.03;;;;;;;9.16;100.00;99507.63;5132801;27;20585;-65
2022/12/09 06:08:10;;;;;;;0.40;0.40;;;;;;;9.16;100.00;99505.06;5147128;27;20566;-65
2022/12/09 06:10:39;;;;;;;0.60;0.60;;;;;;;9.16;100.00;99504.22;5141551;27;20209;-65
2022/12/09 06:13:06;;;;;;;0.70;0.70;;;;;;;9.02;100.00;99489.19;5141425;27;20665;-65
2022/12/09 06:15:33;;;;;;;0.50;0.50;;;;;;;9.13;100.00;99515.38;5136487;27;20670;-65
2022/12/09 06:18:01;;;;;;;0.40;0.40;;;;;;;9.11;100.00;99522.22;5134435;27;20574;-65
2022/12/09 06:20:27;;;;;;;0.50;0.50;;;;;;;9.10;100.00;99525.66;5149923;27;20197;-65
2022/12/09 06:22:56;;;;;;;0.47;0.47;;;;;;;9.11;100.00;99527.31;5143942;27;20217;-65
2022/12/09 06:25:22;;;;;;;0.30;0.30;;;;;;;9.02;100.00;99517.31;5134351;27;20191;-65
2022/12/09 06:27:49;;;;;;;0.70;0.70;;;;;;;9.05;100.00;99535.13;5144411;27;20661;-65
2022/12/09 06:30:17;;;;;;;0.60;0.60;;;;;;;9.05;100.00;99542.00;5133196;27;20589;-65
2022/12/09 06:32:43;;;;;;;0.43;0.43;;;;;;;9.00;100.00;99548.91;5139755;27;20193;-65
2022/12/09 06:35:10;;;;;;;0.50;0.50;;;;;;;8.96;100.00;99555.81;5145072;27;20204;-65
2022/12/09 06:37:37;;;;;;;0.40;0.40;;;;;;;8.97;100.00;99549.81;5135528;27;20194;-65
2022/12/09 06:40:07;;;;;;;0.50;0.50;;;;;;;9.00;100.00;99547.19;5132010;27;20227;-65
2022/12/09 06:42:33;;;;;;;0.50;0.50;;;;;;;8.98;100.00;99546.41;5135259;27;20223;-65
2022/12/09 06:45:00;;;;;;;0.37;0.37;;;;;;;8.95;100.00;99533.66;5138308;27;20201;-65
2022/12/09 06:47:27;;;;;;;0.50;0.50;;;;;;;8.95;100.00;99533.66;5135526;27;20205;-65
2022/12/09 06:49:56;;;;;;;0.50;0.50;;;;;;;8.94;100.00;99524.31;5142823;27;20197;-65
2022/12/09 06:52:23;;;;;;;0.50;0.50;;;;;;;8.85;100.00;99537.31;5136076;27;20656;-65
2022/12/09 06:54:50;;;;;;;0.83;0.83;;;;;;;8.79;100.00;99534.84;5134214;27;20202;-65
2022/12/09 06:57:18;;;;;;;0.40;0.40;;;;;;;8.79;100.00;99547.63;5136137;27;20200;-65
2022/12/09 06:59:45;;;;;;;0.60;0.60;;;;;;;8.82;100.00;99555.25;5136806;27;20682;-66
2022/12/09 07:02:12;;;;;;;0.50;0.50;;;;;;;8.72;100.00;99528.22;5143512;27;20649;-65
2022/12/09 07:04:39;;;;;;;0.63;0.63;;;;;;;8.87;100.00;99540.66;5131818;27;20209;-65
2022/12/09 07:07:05;;;;;;;0.60;0.60;;;;;;;8.84;100.00;99543.28;5131564;27;20232;-64
2022/12/09 07:09:32;;;;;;;0.60;0.60;;;;;;;8.83;100.00;99541.59;5133081;27;20194;-64
2022/12/09 07:11:59;;;;;;;0.60;0.60;;;;;;;8.85;100.00;99542.41;5132117;27;20201;-65
2022/12/09 07:14:28;;;;;;;0.50;0.50;;;;;;;8.90;100.00;99545.69;5151863;27;20214;-66
2022/12/09 07:16:54;;;;;;;0.50;0.50;;;;;;;8.92;100.00;99546.50;5142432;27;20665;-66
2022/12/09 07:19:23;;;;;;;0.50;0.50;;;;;;;8.89;100.00;99544.00;5133713;27;20190;-66
2022/12/09 07:22:08;;;;;;;0.50;0.50;;;;;;;8.85;100.00;99540.69;5127253;27;20293;-65
2022/12/09 07:24:34;;;;;;;0.67;0.67;;;;;;;8.81;100.00;99539.09;5125965;27;20275;-66
2022/12/09 07:27:01;;;;;;;0.60;0.60;;;;;;;8.81;100.00;99543.34;5128699;27;20224;-66
2022/12/09 07:29:31;;;;;;;0.57;0.57;;;;;;;8.78;100.00;99533.19;5128409;27;20244;-66
2022/12/09 07:31:58;;;;;;;0.50;0.50;;;;;;;8.80;100.00;99536.53;5132042;27;20202;-66
2022/12/09 07:34:25;;;;;;;0.50;0.50;;;;;;;8.71;100.00;99516.28;5132460;27;20205;-66
2022/12/09 07:36:52;;;;;;;0.70;0.70;;;;;;;8.92;100.00;99536.28;5133630;27;20193;-66
2022/12/09 07:39:20;;;;;;;0.50;0.50;;;;;;;8.91;100.00;99543.13;5139467;27;20202;-67
2022/12/09 07:41:52;;;;;;;0.60;0.60;;;;;;;8.97;100.00;99544.72;5127763;27;20210;-66
2022/12/09 07:44:18;;;;;;;0.50;0.50;;;;;;;9.01;100.00;99543.78;5127655;27;20297;-66
2022/12/09 07:46:47;;;;;;;0.70;0.70;;;;;;;9.02;100.00;99544.59;5131995;27;20661;-66
2022/12/09 07:49:13;;;;;;;0.50;0.50;;;;;;;9.04;100.00;99528.38;5132445;27;20742;-65
2022/12/09 07:51:41;;;;;;;0.47;0.47;;;;;;;9.08;100.00;99537.63;5145890;27;20197;-65
2022/12/09 07:54:13;;;;;;;0.50;0.50;;;;;;;9.15;100.00;99539.19;5138224;27;20193;-65
2022/12/09 07:56:40;;;;;;;0.70;0.70;;;;;;;9.22;100.00;99538.16;5132923;27;20197;-65
2022/12/09 07:59:08;;;;;;;0.47;0.47;;;;;;;9.15;100.00;99528.94;5132310;27;20313;-65
2022/12/09 08:01:36;;;;;;;0.40;0.40;;;;;;;9.14;100.00;99542.63;5137077;27;20255;-65
2022/12/09 08:04:05;;;;;;;0.43;0.43;;;;;;;9.24;100.00;99544.09;5132748;27;20270;-66
2022/12/09 08:06:32;;;;;;;0.57;0.57;;;;;;;9.27;100.00;99544.00;5132167;27;20353;-66
2022/12/09 08:09:00;;;;;;;0.50;0.50;;;;;;;9.30;100.00;99543.13;5132369;27;20198;-65
2022/12/09 08:11:28;;;;;;;0.70;0.70;;;;;;;9.35;100.00;99557.50;5131311;27;20198;-66
2022/12/09 08:13:57;;;;;;;0.50;0.50;;;;;;;9.34;100.00;99558.34;5141814;27;20213;-66
2022/12/09 08:16:24;;;;;;;0.60;0.60;;;;;;;9.39;100.00;99558.25;5136421;27;20202;-65
2022/12/09 08:18:52;;;;;;;0.60;0.60;;;;;;;9.34;100.00;99539.59;5143668;27;20193;-66
2022/12/09 08:21:23;;;;;;;0.50;0.50;;;;;;;9.45;100.00;99564.09;5139912;27;20198;-66
2022/12/09 08:23:51;;;;;;;0.50;0.50;;;;;;;9.37;100.00;99539.56;5132033;27;20279;-66
2022/12/09 08:26:20;;;;;;;0.50;0.50;;;;;;;9.50;100.00;99559.69;5131974;27;20198;-66
2022/12/09 08:28:48;;;;;;;0.50;0.50;;;;;;;9.55;100.00;99553.63;5139069;27;20197;-66
2022/12/09 08:31:18;;;;;;;0.40;0.40;;;;;;;9.54;100.00;99546.81;5146703;27;20201;-65
2022/12/09 08:33:45;;;;;;;0.57;0.57;;;;;;;9.53;100.00;99545.16;5148788;27;20578;-65
2022/12/09 08:36:14;;;;;;;0.50;0.50;;;;;;;9.60;100.00;99551.78;5134312;27;20221;-65
2022/12/09 08:38:43;;;;;;;0.50;0.50;;;;;;;9.60;100.00;99546.66;5149541;27;20249;-66
2022/12/09 08:41:12;;;;;;;0.50;0.50;;;;;;;9.61;100.00;99553.47;5143802;27;20245;-66
2022/12/09 08:43:40;;;;;;;0.57;0.57;;;;;;;9.63;100.00;99546.63;5135936;27;20249;-66
2022/12/09 08:46:08;;;;;;;1.37;1.27;;;;;;;9.66;100.00;99532.00;5134294;27;20543;-66
2022/12/09 08:48:36;;;;;;;0.67;0.67;;;;;;;9.73;100.00;99550.63;5126150;27;20204;-67
2022/12/09 08:51:03;;;;;;;0.50;0.50;;;;;;;9.79;100.00;99555.63;5136368;27;20595;-66
2022/12/09 08:53:30;;;;;;;1.40;1.07;;;;;;;9.76;100.00;99536.03;5135890;27;20261;-66
2022/12/09 08:55:58;;;;;;;0.73;0.73;;;;;;;9.88;100.00;99547.69;5140924;27;20250;-65
2022/12/09 08:58:25;;;;;;;0.57;0.57;;;;;;;9.87;100.00;99551.97;5147253;27;20201;-65
2022/12/09 09:00:52;;;;;;;0.30;0.30;;;;;;;9.93;100.00;99549.25;5136499;27;20193;-66
2022/12/09 09:03:19;;;;;;;0.53;0.53;;;;;;;9.86;100.00;99523.84;5137642;27;20307;-68
2022/12/09 09:05:45;;;;;;;0.50;0.50;;;;;;;9.85;100.00;99511.94;5131627;27;20218;-68
2022/12/09 09:08:12;;;;;;;0.50;0.50;;;;;;;9.97;100.00;99526.97;5132529;27;20194;-66
2022/12/09 09:10:39;;;;;;;0.70;0.70;;;;;;;10.00;100.00;99527.75;5142552;27;20665;-66
2022/12/09 09:13:07;;;;;;;0.80;0.80;;;;;;;10.00;100.00;99521.78;5139971;27;20791;-66
2022/12/09 09:15:34;;;;;;;0.33;0.33;;;;;;;9.96;100.00;99504.78;5135553;27;20197;-66
2022/12/09 09:18:01;;;;;;;0.73;0.73;;;;;;;10.01;100.00;99508.94;5127136;27;20286;-65
2022/12/09 09:20:27;;;;;;;0.40;0.40;;;;;;;10.00;100.00;99501.28;5129678;27;20253;-66
2022/12/09 09:22:54;;;;;;;0.50;0.50;;;;;;;9.85;100.00;99478.66;5133935;27;20202;-66
2022/12/09 09:25:21;;;;;;;0.53;0.53;;;;;;;9.96;100.00;99504.78;5152880;27;20194;-65
2022/12/09 09:27:47;;;;;;;0.50;0.50;;;;;;;9.87;100.00;99499.91;5144283;27;20202;-67
2022/12/09 09:30:16;;;;;;;0.67;0.67;;;;;;;9.83;100.00;99494.03;5148312;27;20201;-65
2022/12/09 09:32:43;;;;;;;0.90;0.90;;;;;;;9.81;100.00;99500.09;5138243;27;20209;-71
2022/12/09 09:35:09;;;;;;;0.60;0.60;;;;;;;9.72;100.00;99495.19;5134305;27;20281;-72
2022/12/09 09:37:36;;;;;;;0.50;0.50;;;;;;;9.72;100.00;99480.69;5148216;27;21629;-67
2022/12/09 09:40:04;;;;;;;0.40;0.40;;;;;;;9.78;100.00;99474.56;5138078;27;20202;-66
2022/12/09 09:42:37;;;;;;;0.50;0.50;;;;;;;9.91;100.00;99497.25;5143783;27;20197;-66
2022/12/09 09:45:06;;;;;;;0.47;0.47;;;;;;;9.93;100.00;99492.06;5142682;27;20274;-67
2022/12/09 09:47:39;;;;;;;1.90;1.80;;;;;;;9.97;100.00;99478.31;5139087;27;20198;-67
2022/12/09 09:50:18;;;;;;;0.70;0.70;;;;;;;10.05;100.00;99478.13;5139085;27;20684;-65
2022/12/09 09:52:45;;;;;;;0.60;0.60;;;;;;;10.03;100.00;99485.84;5141300;27;20261;-66
2022/12/09 09:55:15;;;;;;;0.50;0.50;;;;;;;10.15;100.00;99475.28;5145383;27;20228;-66
2022/12/09 09:57:47;;;;;;;0.50;0.50;;;;;;;10.19;100.00;99469.19;5139158;27;20197;-65
2022/12/09 10:00:21;;;;;;;0.63;0.63;;;;;;;10.01;100.00;99451.75;5149824;27;20317;-66
2022/12/09 10:02:58;;;;;;;0.47;0.47;;;;;;;10.11;100.00;99466.00;5141366;27;20203;-66
2022/12/09 10:05:30;;;;;;;0.83;0.83;;;;;;;10.18;100.00;99470.06;5140854;27;20232;-65
2022/12/09 10:08:07;;;;;;;0.50;0.50;;;;;;;10.24;100.00;99454.53;5135366;27;20209;-65
2022/12/09 10:10:43;;;;;;;0.40;0.40;;;;;;;10.33;100.00;99448.34;5140773;27;20234;-71
2022/12/09 10:13:24;;;;;;;1.00;1.00;;;;;;;10.38;100.00;99441.34;5146306;27;20197;-66
2022/12/09 10:16:00;;;;;;;0.50;0.50;;;;;;;10.44;100.00;99436.03;5142393;27;20677;-67
2022/12/09 10:18:35;;;;;;;0.30;0.30;;;;;;;10.33;100.00;99417.59;5147217;27;20205;-66
2022/12/09 10:21:02;;;;;;;0.40;0.40;;;;;;;10.42;100.00;99418.16;5142498;27;20252;-66
2022/12/09 10:23:31;;;;;;;0.57;0.57;;;;;;;10.52;100.00;99416.16;5138987;27;20214;-66
2022/12/09 10:26:02;;;;;;;0.70;0.70;;;;;;;10.57;100.00;99421.13;5134284;27;20202;-66
2022/12/09 10:28:34;;;;;;;0.50;0.50;;;;;;;10.64;100.00;99409.81;5130566;27;20206;-66
2022/12/09 10:31:02;;;;;;;0.77;0.77;;;;;;;10.56;100.00;99415.19;5134042;27;20201;-65
2022/12/09 10:33:35;;;;;;;1.10;1.10;;;;;;;10.33;100.00;99382.56;5135636;27;20194;-66
2022/12/09 10:36:02;;;;;;;0.60;0.60;;;;;;;10.46;100.00;99404.38;5137228;27;20561;-66
2022/12/09 10:38:31;;;;;;;0.40;0.40;;;;;;;10.46;100.00;99398.41;5141036;27;20212;-67
2022/12/09 10:41:05;;;;;;;0.30;0.30;;;;;;;10.44;100.00;99398.44;5134088;27;20210;-67
2022/12/09 10:43:36;;;;;;;0.50;0.50;;;;;;;10.28;100.00;99381.00;5128645;27;20214;-70
2022/12/09 10:46:06;;;;;;;0.73;0.73;;;;;;;10.01;100.00;99372.38;5130107;27;20210;-66
2022/12/09 10:48:37;;;;;;;1.17;1.17;;;;;;;10.07;100.00;99369.63;5130848;27;20699;-67
2022/12/09 10:51:05;;;;;;;0.87;0.87;;;;;;;10.01;100.00;99367.25;5128703;27;20914;-67
2022/12/09 10:53:34;;;;;;;0.60;0.60;;;;;;;10.08;100.00;99371.28;5134722;27;20194;-67
2022/12/09 10:56:03;;;;;;;0.60;0.60;;;;;;;10.01;100.00;99354.44;5134654;27;20198;-67
2022/12/09 10:58:31;;;;;;;0.60;0.60;;;;;;;10.10;100.00;99359.28;5154460;27;20193;-69
2022/12/09 11:01:05;;;;;;;0.40;0.40;;;;;;;10.05;100.00;99345.75;5140207;27;20202;-67
2022/12/09 11:03:33;;;;;;;0.83;0.83;;;;;;;10.07;100.00;99354.25;5136921;27;20190;-67
2022/12/09 11:06:11;;;;;;;3.13;2.93;;;;;;;10.09;100.00;99352.47;5149197;27;20221;-67
2022/12/09 11:08:41;;;;;;;1.43;1.43;;;;;;;10.02;100.00;99350.97;5126574;27;20209;-67
2022/12/09 11:11:08;;;;;;;0.50;0.50;;;;;;;10.00;100.00;99342.50;5133415;27;20198;-67
2022/12/09 11:13:41;;;;;;;1.07;1.07;;;;;;;9.88;100.00;99328.34;5133712;27;20621;-67
2022/12/09 11:16:09;;;;;;;0.87;0.87;;;;;;;9.94;100.00;99342.69;5150301;27;20190;-67
2022/12/09 11:18:42;;;;;;;0.60;0.60;;;;;;;10.04;100.00;99346.66;5140159;27;20699;-67
2022/12/09 11:21:32;;;;;;;0.60;0.60;;;;;;;10.09;100.00;99360.16;5147041;27;20666;-67
2022/12/09 11:23:59;;;;;;;0.43;0.43;;;;;;;10.19;100.00;99353.09;5152072;27;20212;-67
2022/12/09 11:26:32;;;;;;;1.10;1.10;;;;;;;10.08;100.00;99345.66;5142364;27;20439;-67
2022/12/09 11:29:04;;;;;;;0.70;0.70;;;;;;;10.15;100.00;99349.78;5145885;27;20263;-66
2022/12/09 11:31:37;;;;;;;0.60;0.60;;;;;;;9.91;100.00;99322.28;5134372;27;20202;-65
2022/12/09 11:34:14;;;;;;;0.70;0.70;;;;;;;10.00;100.00;99337.38;5130925;27;20251;-66
2022/12/09 11:36:47;;;;;;;1.00;1.00;;;;;;;10.07;100.00;99328.66;5144692;27;20201;-67
2022/12/09 11:39:20;;;;;;;0.50;0.50;;;;;;;10.01;100.00;99344.19;5133994;27;20204;-64